createdAt,value
2016-07-28T00:00:13.620Z,70.53
2016-07-28T00:01:20.870Z,70.47
2016-07-28T00:02:22.277Z,70.46
2016-07-28T00:03:15.341Z,70.56
2016-07-28T00:04:21.414Z,70.59
2016-07-28T00:05:15.409Z,70.60
2016-07-28T00:06:41.495Z,70.55
2016-07-28T00:07:38.652Z,70.56
2016-07-28T00:08:17.255Z,70.54
2016-07-28T00:09:14.925Z,70.54
2016-07-28T00:10:13.561Z,70.53
2016-07-28T00:12:31.863Z,70.56
2016-07-28T00:13:15.677Z,70.51
2016-07-28T00:14:15.342Z,70.58
2016-07-28T00:15:19.829Z,70.57
2016-07-28T00:16:17.167Z,69.41
2016-07-28T00:17:16.792Z,69.21
2016-07-28T00:18:33.377Z,69.05
2016-07-28T00:19:26.201Z,69.04
2016-07-28T00:20:32.970Z,68.98
2016-07-28T00:21:23.689Z,69.75
2016-07-28T00:22:18.856Z,69.20
2016-07-28T00:23:24.419Z,69.05
2016-07-28T00:24:22.461Z,68.99
2016-07-28T00:25:14.578Z,68.96
2016-07-28T00:27:12.357Z,69.96
2016-07-28T00:28:13.733Z,69.06
2016-07-28T00:29:14.015Z,68.89
2016-07-28T00:30:44.556Z,68.87
2016-07-28T00:31:33.619Z,68.97
2016-07-28T00:32:19.315Z,69.96
2016-07-28T00:33:32.464Z,70.22
2016-07-28T00:34:21.588Z,70.24
2016-07-28T00:35:20.373Z,70.37
2016-07-28T00:36:11.860Z,70.45
2016-07-28T00:37:34.744Z,70.37
2016-07-28T00:38:39.429Z,70.46
2016-07-28T00:39:13.315Z,70.46
2016-07-28T00:40:28.380Z,70.45
2016-07-28T00:41:37.654Z,69.37
2016-07-28T00:42:27.310Z,69.06
2016-07-28T00:43:29.062Z,69.04
2016-07-28T00:44:23.467Z,68.82
2016-07-28T00:45:27.650Z,69.00
2016-07-28T00:46:33.605Z,70.12
2016-07-28T00:47:41.889Z,70.27
2016-07-28T00:48:32.524Z,70.36
2016-07-28T00:49:38.808Z,70.42
2016-07-28T00:50:38.978Z,70.43
2016-07-28T00:51:11.210Z,70.39
2016-07-28T00:52:13.029Z,70.49
2016-07-28T00:53:15.307Z,70.41
2016-07-28T00:54:13.041Z,70.50
2016-07-28T00:55:13.332Z,70.45
2016-07-28T00:56:43.040Z,70.36
2016-07-28T00:57:13.903Z,70.62
2016-07-28T00:58:15.409Z,70.43
2016-07-28T00:59:39.551Z,70.43
2016-07-28T01:00:16.753Z,70.48
2016-07-28T01:01:33.430Z,70.50
2016-07-28T01:02:37.799Z,70.52
2016-07-28T01:03:22.049Z,70.47
2016-07-28T01:04:13.220Z,70.41
2016-07-28T01:05:18.048Z,70.45
2016-07-28T01:06:34.564Z,70.46
2016-07-28T01:07:18.262Z,70.48
2016-07-28T01:08:15.687Z,70.48
2016-07-28T01:09:15.401Z,70.47
2016-07-28T01:10:26.671Z,70.40
2016-07-28T01:11:36.656Z,70.48
2016-07-28T01:12:45.754Z,70.28
2016-07-28T01:13:27.449Z,69.36
2016-07-28T01:14:12.096Z,69.26
2016-07-28T01:15:16.588Z,70.10
2016-07-28T01:16:15.856Z,70.25
2016-07-28T01:17:22.255Z,70.25
2016-07-28T01:18:16.295Z,70.35
2016-07-28T01:19:14.233Z,70.37
2016-07-28T01:20:11.274Z,70.41
2016-07-28T01:21:38.890Z,70.40
2016-07-28T01:22:13.225Z,70.32
2016-07-28T01:23:14.153Z,70.40
2016-07-28T01:24:13.947Z,70.40
2016-07-28T01:25:13.251Z,70.38
2016-07-28T01:26:15.731Z,70.37
2016-07-28T01:27:16.562Z,70.47
2016-07-28T01:28:18.324Z,70.32
2016-07-28T01:29:16.857Z,70.37
2016-07-28T01:30:15.290Z,70.34
2016-07-28T01:31:39.546Z,70.33
2016-07-28T01:32:43.270Z,70.36
2016-07-28T01:33:13.613Z,70.34
2016-07-28T01:34:12.632Z,70.36
2016-07-28T01:35:16.983Z,70.29
2016-07-28T01:36:15.088Z,70.32
2016-07-28T01:37:32.492Z,70.36
2016-07-28T01:38:17.693Z,70.27
2016-07-28T01:39:14.719Z,70.28
2016-07-28T01:40:12.975Z,70.26
2016-07-28T01:41:38.111Z,70.29
2016-07-28T01:42:12.270Z,70.29
2016-07-28T01:43:31.834Z,70.27
2016-07-28T01:44:29.201Z,70.31
2016-07-28T01:45:31.435Z,70.36
2016-07-28T01:46:14.479Z,70.28
2016-07-28T01:47:22.563Z,70.28
2016-07-28T01:48:32.107Z,70.31
2016-07-28T01:49:19.825Z,70.29
2016-07-28T01:50:41.219Z,70.27
2016-07-28T01:51:13.641Z,70.30
2016-07-28T01:52:45.919Z,70.28
2016-07-28T01:53:16.318Z,70.30
2016-07-28T01:54:13.656Z,70.27
2016-07-28T01:55:32.894Z,70.21
2016-07-28T01:57:38.570Z,70.21
2016-07-28T01:58:16.492Z,70.22
2016-07-28T01:59:17.707Z,70.30
2016-07-28T02:00:34.573Z,70.27
2016-07-28T02:01:33.480Z,70.20
2016-07-28T02:02:15.148Z,70.19
2016-07-28T02:03:26.620Z,70.17
2016-07-28T02:04:32.139Z,70.23
2016-07-28T02:05:47.340Z,70.21
2016-07-28T02:06:21.117Z,70.22
2016-07-28T02:07:39.453Z,70.18
2016-07-28T02:08:30.699Z,70.16
2016-07-28T02:09:38.778Z,70.16
2016-07-28T02:10:15.500Z,70.21
2016-07-28T02:11:44.362Z,70.10
2016-07-28T02:12:45.402Z,70.18
2016-07-28T02:13:20.875Z,70.11
2016-07-28T02:14:21.152Z,70.12
2016-07-28T02:15:30.276Z,70.14
2016-07-28T02:16:32.002Z,70.19
2016-07-28T02:17:12.937Z,70.16
2016-07-28T02:18:33.825Z,69.11
2016-07-28T02:19:21.272Z,68.80
2016-07-28T02:20:38.577Z,68.73
2016-07-28T02:21:16.746Z,68.90
2016-07-28T02:22:16.111Z,69.68
2016-07-28T02:23:31.985Z,69.86
2016-07-28T02:24:21.313Z,70.01
2016-07-28T02:25:41.594Z,70.03
2016-07-28T02:26:23.343Z,70.01
2016-07-28T02:27:14.112Z,70.11
2016-07-28T02:28:42.051Z,70.10
2016-07-28T02:29:38.608Z,70.08
2016-07-28T02:30:54.812Z,70.06
2016-07-28T02:31:34.337Z,70.09
2016-07-28T02:32:25.523Z,69.95
2016-07-28T02:33:31.735Z,68.96
2016-07-28T02:34:56.068Z,68.75
2016-07-28T02:35:12.282Z,69.67
2016-07-28T02:36:30.676Z,69.90
2016-07-28T02:37:14.869Z,69.94
2016-07-28T02:38:31.912Z,70.01
2016-07-28T02:39:41.802Z,70.03
2016-07-28T02:40:38.942Z,70.06
2016-07-28T02:41:22.643Z,70.04
2016-07-28T02:42:14.513Z,70.03
2016-07-28T02:43:17.178Z,68.92
2016-07-28T02:44:14.633Z,68.69
2016-07-28T02:45:52.111Z,68.60
2016-07-28T02:46:20.039Z,68.51
2016-07-28T02:47:32.069Z,68.48
2016-07-28T02:48:43.965Z,68.43
2016-07-28T02:49:39.724Z,68.44
2016-07-28T02:50:34.533Z,68.50
2016-07-28T02:51:28.356Z,69.49
2016-07-28T02:52:11.849Z,69.73
2016-07-28T02:53:38.347Z,69.82
2016-07-28T02:54:27.566Z,69.83
2016-07-28T02:55:56.688Z,69.91
2016-07-28T02:56:32.336Z,69.91
2016-07-28T02:57:12.945Z,70.00
2016-07-28T02:58:37.312Z,69.95
2016-07-28T02:59:16.413Z,69.96
2016-07-28T03:00:38.401Z,69.99
2016-07-28T03:01:32.812Z,70.01
2016-07-28T03:02:27.337Z,69.95
2016-07-28T03:03:15.043Z,69.98
2016-07-28T03:04:31.534Z,70.00
2016-07-28T03:05:42.712Z,69.94
2016-07-28T03:06:14.682Z,69.98
2016-07-28T03:07:14.470Z,69.89
2016-07-28T03:08:30.465Z,68.84
2016-07-28T03:09:26.713Z,68.71
2016-07-28T03:10:12.999Z,68.51
2016-07-28T03:11:44.544Z,68.47
2016-07-28T03:12:31.277Z,68.44
2016-07-28T03:13:34.859Z,68.38
2016-07-28T03:14:15.000Z,69.43
2016-07-28T03:15:39.185Z,68.55
2016-07-28T03:16:43.448Z,68.46
2016-07-28T03:17:13.462Z,68.48
2016-07-28T03:18:23.258Z,68.36
2016-07-28T03:19:14.342Z,68.36
2016-07-28T03:20:31.339Z,68.31
2016-07-28T03:21:25.514Z,68.42
2016-07-28T03:22:14.478Z,69.41
2016-07-28T03:23:32.882Z,69.60
2016-07-28T03:24:16.233Z,69.75
2016-07-28T03:25:13.155Z,69.76
2016-07-28T03:26:39.271Z,69.81
2016-07-28T03:27:32.591Z,69.83
2016-07-28T03:28:52.380Z,69.85
2016-07-28T03:29:32.130Z,69.83
2016-07-28T03:30:23.163Z,69.84
2016-07-28T03:31:11.496Z,69.87
2016-07-28T03:32:12.407Z,69.86
2016-07-28T03:33:12.936Z,69.90
2016-07-28T03:34:35.889Z,69.88
2016-07-28T03:35:36.179Z,69.85
2016-07-28T03:36:36.497Z,69.87
2016-07-28T03:37:21.713Z,69.85
2016-07-28T03:38:42.776Z,69.82
2016-07-28T03:39:13.132Z,69.90
2016-07-28T03:40:13.123Z,69.81
2016-07-28T03:41:13.081Z,69.83
2016-07-28T03:42:18.414Z,69.85
2016-07-28T03:43:12.887Z,69.82
2016-07-28T03:44:34.723Z,69.83
2016-07-28T03:45:34.387Z,69.85
2016-07-28T03:46:28.067Z,69.82
2016-07-28T03:47:25.181Z,69.85
2016-07-28T03:48:28.375Z,69.82
2016-07-28T03:49:30.032Z,69.81
2016-07-28T03:50:36.998Z,69.80
2016-07-28T03:51:28.619Z,69.82
2016-07-28T03:52:15.632Z,68.78
2016-07-28T03:53:13.859Z,69.49
2016-07-28T03:54:34.612Z,69.72
2016-07-28T03:55:33.353Z,69.74
2016-07-28T03:56:32.185Z,69.76
2016-07-28T03:58:27.403Z,69.73
2016-07-28T03:59:42.566Z,69.72
2016-07-28T04:00:32.776Z,69.61
2016-07-28T04:01:39.191Z,68.66
2016-07-28T04:02:31.624Z,68.42
2016-07-28T04:03:23.571Z,68.28
2016-07-28T04:04:24.717Z,68.23
2016-07-28T04:05:32.764Z,68.23
2016-07-28T04:06:18.077Z,68.15
2016-07-28T04:07:17.559Z,68.34
2016-07-28T04:08:36.847Z,69.18
2016-07-28T04:09:13.822Z,69.41
2016-07-28T04:10:38.493Z,69.53
2016-07-28T04:11:30.855Z,69.59
2016-07-28T04:12:31.850Z,69.59
2016-07-28T04:13:31.978Z,69.62
2016-07-28T04:14:16.715Z,69.64
2016-07-28T04:15:37.173Z,69.64
2016-07-28T04:16:22.207Z,69.65
2016-07-28T04:17:14.950Z,69.64
2016-07-28T04:18:33.753Z,69.60
2016-07-28T04:19:32.396Z,69.61
2016-07-28T04:20:13.293Z,69.62
2016-07-28T04:21:16.488Z,69.64
2016-07-28T04:22:37.138Z,69.63
2016-07-28T04:23:25.756Z,69.62
2016-07-28T04:24:36.508Z,69.63
2016-07-28T04:25:18.021Z,69.60
2016-07-28T04:26:33.553Z,69.61
2016-07-28T04:27:38.402Z,69.60
2016-07-28T04:28:28.456Z,69.65
2016-07-28T04:29:15.903Z,69.61
2016-07-28T04:30:37.505Z,69.58
2016-07-28T04:31:15.722Z,69.58
2016-07-28T04:32:13.613Z,69.57
2016-07-28T04:33:26.990Z,69.59
2016-07-28T04:34:36.589Z,69.58
2016-07-28T04:35:13.943Z,69.58
2016-07-28T04:36:34.281Z,69.60
2016-07-28T04:37:48.072Z,69.56
2016-07-28T04:38:38.891Z,69.53
2016-07-28T04:39:46.138Z,69.53
2016-07-28T04:40:37.263Z,69.52
2016-07-28T04:41:14.064Z,69.51
2016-07-28T04:42:18.424Z,69.52
2016-07-28T04:43:42.694Z,69.52
2016-07-28T04:44:34.397Z,69.49
2016-07-28T04:45:27.129Z,69.49
2016-07-28T04:46:37.545Z,69.51
2016-07-28T04:47:16.621Z,69.51
2016-07-28T04:48:20.981Z,69.47
2016-07-28T04:49:22.088Z,69.53
2016-07-28T04:50:27.460Z,69.48
2016-07-28T04:51:32.281Z,69.51
2016-07-28T04:52:28.760Z,69.51
2016-07-28T04:53:13.477Z,69.45
2016-07-28T04:54:14.438Z,69.30
2016-07-28T04:55:13.258Z,68.37
2016-07-28T04:56:21.043Z,68.19
2016-07-28T04:57:32.204Z,68.06
2016-07-28T04:58:24.191Z,68.31
2016-07-28T04:59:15.923Z,69.01
2016-07-28T05:00:16.231Z,69.21
2016-07-28T05:01:24.820Z,69.29
2016-07-28T05:02:32.746Z,69.34
2016-07-28T05:03:37.704Z,69.38
2016-07-28T05:04:24.902Z,69.27
2016-07-28T05:05:22.862Z,68.32
2016-07-28T05:06:19.515Z,68.12
2016-07-28T05:07:13.179Z,67.95
2016-07-28T05:08:13.177Z,67.89
2016-07-28T05:09:15.273Z,67.85
2016-07-28T05:10:22.770Z,67.89
2016-07-28T05:11:22.816Z,67.84
2016-07-28T05:12:32.054Z,67.76
2016-07-28T05:13:15.134Z,67.91
2016-07-28T05:14:13.729Z,68.84
2016-07-28T05:15:14.247Z,69.10
2016-07-28T05:16:33.191Z,69.17
2016-07-28T05:17:32.550Z,69.23
2016-07-28T05:18:32.711Z,69.26
2016-07-28T05:19:33.876Z,69.31
2016-07-28T05:20:17.335Z,69.30
2016-07-28T05:21:25.150Z,69.33
2016-07-28T05:22:29.146Z,69.30
2016-07-28T05:23:24.550Z,69.17
2016-07-28T05:24:12.091Z,68.30
2016-07-28T05:25:16.473Z,68.04
2016-07-28T05:26:25.327Z,69.00
2016-07-28T05:28:25.343Z,69.27
2016-07-28T05:29:31.597Z,69.27
2016-07-28T05:30:31.568Z,69.30
2016-07-28T05:31:14.975Z,69.33
2016-07-28T05:32:10.574Z,69.28
2016-07-28T05:33:21.915Z,68.24
2016-07-28T05:34:30.387Z,67.95
2016-07-28T05:35:27.910Z,68.93
2016-07-28T05:36:28.639Z,69.12
2016-07-28T05:37:17.762Z,69.22
2016-07-28T05:38:30.722Z,68.16
2016-07-28T05:39:24.047Z,67.97
2016-07-28T05:40:26.174Z,67.87
2016-07-28T05:41:14.286Z,67.81
2016-07-28T05:42:15.590Z,67.85
2016-07-28T05:43:24.840Z,68.82
2016-07-28T05:44:28.062Z,69.02
2016-07-28T05:45:24.444Z,69.11
2016-07-28T05:46:25.577Z,69.19
2016-07-28T05:47:27.671Z,69.21
2016-07-28T05:48:33.005Z,69.19
2016-07-28T05:49:20.767Z,69.20
2016-07-28T05:51:19.343Z,69.26
2016-07-28T05:52:33.595Z,69.21
2016-07-28T05:53:23.823Z,69.22
2016-07-28T05:54:28.630Z,69.27
2016-07-28T05:55:27.130Z,69.25
2016-07-28T05:56:30.396Z,69.23
2016-07-28T05:58:13.102Z,69.22
2016-07-28T05:59:21.005Z,69.24
2016-07-28T06:00:12.963Z,69.24
2016-07-28T06:01:23.425Z,68.16
2016-07-28T06:02:19.185Z,67.90
2016-07-28T06:03:12.833Z,68.17
2016-07-28T06:04:23.969Z,68.87
2016-07-28T06:05:19.723Z,69.06
2016-07-28T06:06:18.551Z,69.11
2016-07-28T06:07:14.332Z,69.17
2016-07-28T06:08:25.737Z,69.18
2016-07-28T06:09:38.702Z,69.23
2016-07-28T06:10:14.688Z,69.19
2016-07-28T06:11:23.712Z,69.26
2016-07-28T06:12:22.772Z,69.23
2016-07-28T06:13:23.439Z,68.20
2016-07-28T06:14:12.644Z,69.03
2016-07-28T06:15:22.146Z,69.12
2016-07-28T06:16:16.165Z,69.19
2016-07-28T06:17:26.239Z,69.26
2016-07-28T06:18:30.753Z,69.38
2016-07-28T06:19:28.237Z,69.30
2016-07-28T06:20:27.683Z,69.47
2016-07-28T06:21:27.871Z,69.26
2016-07-28T06:22:29.778Z,69.44
2016-07-28T06:23:19.360Z,69.28
2016-07-28T06:24:23.058Z,69.35
2016-07-28T06:25:22.909Z,69.30
2016-07-28T06:26:36.758Z,69.28
2016-07-28T06:27:26.922Z,69.35
2016-07-28T06:28:14.207Z,69.32
2016-07-28T06:29:33.803Z,69.34
2016-07-28T06:30:17.832Z,69.27
2016-07-28T06:31:32.126Z,69.31
2016-07-28T06:32:13.478Z,69.29
2016-07-28T06:33:13.826Z,69.34
2016-07-28T06:34:14.558Z,69.30
2016-07-28T06:35:11.951Z,69.45
2016-07-28T06:36:40.264Z,68.33
2016-07-28T06:37:25.274Z,68.10
2016-07-28T06:38:21.921Z,67.96
2016-07-28T06:39:31.916Z,68.11
2016-07-28T06:40:31.067Z,69.12
2016-07-28T06:41:26.937Z,69.32
2016-07-28T06:43:27.877Z,69.48
2016-07-28T06:44:43.166Z,69.68
2016-07-28T06:45:20.427Z,69.72
2016-07-28T06:46:29.098Z,69.68
2016-07-28T06:47:20.142Z,69.71
2016-07-28T06:48:15.637Z,69.62
2016-07-28T06:49:13.446Z,69.66
2016-07-28T06:50:12.570Z,69.67
2016-07-28T06:51:13.225Z,69.69
2016-07-28T06:52:17.875Z,69.74
2016-07-28T06:53:33.645Z,69.81
2016-07-28T06:54:23.514Z,69.87
2016-07-28T06:55:39.040Z,69.84
2016-07-28T06:56:14.481Z,69.73
2016-07-28T06:57:27.373Z,68.85
2016-07-28T06:58:23.733Z,68.57
2016-07-28T06:59:38.433Z,68.33
2016-07-28T07:00:25.531Z,68.19
2016-07-28T07:01:28.152Z,68.19
2016-07-28T07:02:31.103Z,68.18
2016-07-28T07:03:31.522Z,68.34
2016-07-28T07:04:26.722Z,69.14
2016-07-28T07:05:32.230Z,69.44
2016-07-28T07:06:33.422Z,69.18
2016-07-28T07:07:28.896Z,69.28
2016-07-28T07:08:15.561Z,68.97
2016-07-28T07:09:27.524Z,68.98
2016-07-28T07:10:20.631Z,69.03
2016-07-28T07:11:29.753Z,69.10
2016-07-28T07:12:14.598Z,69.11
2016-07-28T07:13:31.673Z,69.06
2016-07-28T07:14:14.219Z,69.17
2016-07-28T07:15:33.031Z,69.23
2016-07-28T07:16:15.344Z,68.96
2016-07-28T07:17:11.686Z,69.03
2016-07-28T07:18:34.339Z,68.69
2016-07-28T07:19:16.948Z,68.85
2016-07-28T07:20:14.538Z,68.83
2016-07-28T07:21:13.903Z,68.83
2016-07-28T07:22:19.866Z,68.58
2016-07-28T07:23:33.820Z,68.85
2016-07-28T07:24:38.067Z,68.95
2016-07-28T07:25:17.206Z,68.46
2016-07-28T07:26:25.789Z,68.73
2016-07-28T07:27:38.233Z,68.39
2016-07-28T07:28:24.178Z,68.66
2016-07-28T07:29:38.930Z,68.46
2016-07-28T07:30:32.789Z,67.02
2016-07-28T07:31:33.003Z,66.13
2016-07-28T07:32:16.805Z,66.94
2016-07-28T07:33:27.882Z,67.01
2016-07-28T07:34:32.422Z,66.68
2016-07-28T07:35:30.019Z,67.05
2016-07-28T07:36:36.898Z,66.89
2016-07-28T07:37:32.597Z,66.96
2016-07-28T07:38:39.728Z,66.92
2016-07-28T07:39:51.049Z,66.65
2016-07-28T07:40:14.327Z,66.99
2016-07-28T07:41:32.276Z,67.09
2016-07-28T07:42:16.655Z,67.35
2016-07-28T07:43:19.004Z,67.72
2016-07-28T07:44:13.972Z,67.78
2016-07-28T07:45:15.879Z,67.34
2016-07-28T07:46:15.508Z,67.38
2016-07-28T07:47:18.430Z,67.47
2016-07-28T07:48:17.232Z,67.62
2016-07-28T07:49:14.400Z,67.35
2016-07-28T07:50:16.456Z,67.53
2016-07-28T07:51:15.890Z,67.84
2016-07-28T07:52:16.388Z,68.06
2016-07-28T07:53:14.175Z,68.15
2016-07-28T07:54:14.276Z,68.34
2016-07-28T07:55:16.525Z,68.37
2016-07-28T07:56:18.239Z,68.35
2016-07-28T07:57:15.679Z,67.79
2016-07-28T07:58:19.829Z,67.85
2016-07-28T07:59:16.633Z,67.89
2016-07-28T08:00:16.070Z,67.86
2016-07-28T08:01:16.366Z,67.55
2016-07-28T08:02:16.561Z,67.62
2016-07-28T08:03:17.180Z,67.60
2016-07-28T08:04:13.935Z,67.48
2016-07-28T08:05:15.809Z,67.33
2016-07-28T08:06:17.171Z,67.81
2016-07-28T08:07:15.494Z,68.02
2016-07-28T08:08:19.704Z,67.93
2016-07-28T08:09:13.859Z,67.75
2016-07-28T08:10:24.496Z,67.82
2016-07-28T08:11:27.941Z,67.94
2016-07-28T08:12:33.239Z,67.84
2016-07-28T08:13:22.106Z,67.95
2016-07-28T08:14:12.332Z,67.94
2016-07-28T08:15:25.454Z,67.88
2016-07-28T08:16:12.811Z,67.86
2016-07-28T08:17:15.472Z,67.83
2016-07-28T08:18:33.871Z,67.76
2016-07-28T08:19:23.156Z,67.76
2016-07-28T08:20:19.964Z,67.80
2016-07-28T08:21:34.137Z,67.74
2016-07-28T08:22:22.570Z,67.75
2016-07-28T08:23:15.944Z,67.74
2016-07-28T08:24:22.802Z,67.76
2016-07-28T08:25:23.514Z,67.76
2016-07-28T08:26:15.908Z,67.78
2016-07-28T08:27:38.743Z,67.76
2016-07-28T08:28:13.628Z,67.72
2016-07-28T08:29:13.845Z,67.73
2016-07-28T08:30:28.124Z,67.75
2016-07-28T08:31:15.126Z,67.73
2016-07-28T08:32:13.779Z,67.75
2016-07-28T08:33:20.267Z,67.76
2016-07-28T08:34:21.867Z,67.74
2016-07-28T08:35:28.976Z,67.75
2016-07-28T08:36:37.455Z,67.73
2016-07-28T08:37:24.836Z,67.74
2016-07-28T08:38:30.433Z,67.73
2016-07-28T08:39:12.804Z,67.74
2016-07-28T08:40:30.886Z,67.72
2016-07-28T08:41:37.041Z,67.74
2016-07-28T08:42:28.646Z,67.74
2016-07-28T08:43:34.273Z,67.74
2016-07-28T08:44:40.301Z,67.73
2016-07-28T08:45:12.927Z,67.73
2016-07-28T08:46:15.231Z,67.75
2016-07-28T08:47:33.597Z,67.76
2016-07-28T08:48:16.667Z,67.71
2016-07-28T08:49:32.552Z,67.73
2016-07-28T08:50:38.832Z,67.76
2016-07-28T08:51:12.946Z,67.74
2016-07-28T08:52:12.115Z,67.74
2016-07-28T08:53:13.943Z,67.74
2016-07-28T08:54:12.133Z,67.75
2016-07-28T08:55:16.216Z,67.74
2016-07-28T08:56:16.934Z,67.75
2016-07-28T08:57:16.747Z,67.74
2016-07-28T08:58:26.933Z,67.76
2016-07-28T08:59:30.465Z,67.75
2016-07-28T09:00:37.320Z,67.76
2016-07-28T09:01:14.465Z,67.76
2016-07-28T09:02:38.055Z,67.78
2016-07-28T09:03:21.443Z,67.77
2016-07-28T09:04:19.479Z,67.77
2016-07-28T09:05:23.135Z,67.74
2016-07-28T09:06:36.412Z,67.77
2016-07-28T09:07:14.578Z,67.74
2016-07-28T09:08:14.292Z,67.78
2016-07-28T09:09:12.454Z,67.74
2016-07-28T09:10:43.818Z,67.76
2016-07-28T09:11:33.141Z,67.75
2016-07-28T09:12:19.409Z,67.76
2016-07-28T09:13:24.662Z,67.76
2016-07-28T09:14:16.631Z,67.77
2016-07-28T09:15:26.466Z,67.76
2016-07-28T09:16:39.960Z,67.76
2016-07-28T09:17:19.481Z,67.75
2016-07-28T09:18:11.375Z,67.79
2016-07-28T09:19:23.882Z,67.77
2016-07-28T09:20:14.876Z,67.77
2016-07-28T09:21:40.709Z,67.77
2016-07-28T09:22:15.522Z,67.75
2016-07-28T09:23:26.413Z,67.79
2016-07-28T09:24:35.471Z,67.80
2016-07-28T09:25:24.569Z,67.85
2016-07-28T09:26:32.394Z,67.86
2016-07-28T09:27:36.963Z,67.90
2016-07-28T09:28:35.628Z,67.86
2016-07-28T09:29:25.769Z,67.87
2016-07-28T09:30:39.081Z,67.87
2016-07-28T09:31:37.339Z,67.86
2016-07-28T09:32:32.014Z,67.88
2016-07-28T09:33:36.628Z,66.86
2016-07-28T09:34:34.312Z,66.76
2016-07-28T09:35:15.871Z,67.50
2016-07-28T09:36:15.116Z,67.65
2016-07-28T09:37:14.857Z,67.71
2016-07-28T09:38:39.265Z,67.76
2016-07-28T09:39:16.693Z,67.75
2016-07-28T09:40:32.693Z,67.75
2016-07-28T09:41:22.293Z,67.79
2016-07-28T09:42:41.472Z,67.77
2016-07-28T09:43:34.591Z,67.77
2016-07-28T09:44:13.654Z,67.78
2016-07-28T09:45:12.966Z,67.76
2016-07-28T09:46:13.022Z,67.78
2016-07-28T09:47:24.542Z,67.76
2016-07-28T09:48:15.126Z,67.76
2016-07-28T09:49:24.252Z,67.75
2016-07-28T09:50:31.545Z,67.75
2016-07-28T09:51:34.282Z,67.73
2016-07-28T09:52:31.650Z,67.72
2016-07-28T09:53:33.711Z,67.74
2016-07-28T09:54:42.345Z,67.70
2016-07-28T09:55:37.037Z,67.71
2016-07-28T09:56:13.914Z,67.66
2016-07-28T09:57:16.499Z,67.67
2016-07-28T09:58:14.685Z,67.70
2016-07-28T09:59:17.835Z,67.69
2016-07-28T10:00:39.817Z,67.69
2016-07-28T10:01:46.416Z,67.68
2016-07-28T10:02:37.271Z,67.65
2016-07-28T10:03:21.749Z,67.68
2016-07-28T10:04:46.000Z,67.68
2016-07-28T10:05:12.591Z,67.86
2016-07-28T10:06:28.258Z,67.98
2016-07-28T10:07:12.887Z,67.78
2016-07-28T10:08:16.440Z,67.83
2016-07-28T10:09:14.342Z,67.75
2016-07-28T10:10:43.241Z,67.71
2016-07-28T10:11:53.896Z,67.68
2016-07-28T10:12:14.830Z,67.68
2016-07-28T10:13:39.481Z,67.65
2016-07-28T10:14:15.213Z,67.63
2016-07-28T10:15:12.458Z,67.51
2016-07-28T10:16:37.638Z,67.62
2016-07-28T10:17:15.203Z,67.60
2016-07-28T10:18:38.091Z,67.60
2016-07-28T10:19:14.131Z,67.59
2016-07-28T10:20:45.049Z,67.58
2016-07-28T10:21:21.753Z,67.60
2016-07-28T10:22:39.527Z,67.57
2016-07-28T10:23:15.212Z,67.57
2016-07-28T10:24:38.946Z,67.56
2016-07-28T10:25:39.044Z,67.57
2016-07-28T10:26:31.965Z,67.68
2016-07-28T10:27:10.779Z,67.55
2016-07-28T10:29:22.784Z,67.55
2016-07-28T10:30:10.978Z,67.55
2016-07-28T10:31:12.381Z,67.56
2016-07-28T10:32:38.317Z,67.59
2016-07-28T10:33:32.883Z,67.56
2016-07-28T10:34:27.134Z,67.60
2016-07-28T10:35:12.296Z,67.62
2016-07-28T10:36:12.989Z,67.63
2016-07-28T10:37:28.779Z,67.66
2016-07-28T10:38:44.069Z,67.65
2016-07-28T10:39:44.552Z,67.67
2016-07-28T10:40:47.312Z,67.72
2016-07-28T10:41:30.972Z,67.67
2016-07-28T10:42:14.071Z,67.70
2016-07-28T10:43:42.823Z,67.74
2016-07-28T10:44:17.038Z,67.72
2016-07-28T10:45:28.024Z,67.74
2016-07-28T10:46:25.470Z,67.75
2016-07-28T10:47:36.264Z,67.78
2016-07-28T10:48:30.265Z,67.78
2016-07-28T10:49:40.316Z,67.76
2016-07-28T10:50:11.464Z,67.76
2016-07-28T10:51:13.852Z,67.77
2016-07-28T10:52:22.752Z,67.83
2016-07-28T10:53:39.195Z,67.80
2016-07-28T10:54:43.105Z,67.76
2016-07-28T10:55:37.968Z,67.73
2016-07-28T10:56:18.985Z,67.73
2016-07-28T10:57:11.546Z,67.74
2016-07-28T10:58:26.487Z,67.72
2016-07-28T10:59:12.147Z,67.71
2016-07-28T11:00:37.389Z,67.64
2016-07-28T11:01:13.373Z,67.65
2016-07-28T11:02:19.140Z,67.65
2016-07-28T11:03:19.199Z,67.70
2016-07-28T11:04:38.235Z,67.69
2016-07-28T11:05:36.542Z,67.68
2016-07-28T11:06:30.696Z,67.78
2016-07-28T11:07:28.097Z,66.93
2016-07-28T11:08:13.464Z,67.72
2016-07-28T11:09:11.049Z,67.87
2016-07-28T11:10:37.023Z,67.92
2016-07-28T11:11:13.722Z,67.85
2016-07-28T11:12:43.130Z,67.90
2016-07-28T11:13:12.254Z,68.02
2016-07-28T11:14:26.959Z,68.05
2016-07-28T11:15:19.101Z,68.08
2016-07-28T11:16:37.472Z,68.11
2016-07-28T11:17:14.706Z,68.16
2016-07-28T11:18:14.337Z,68.12
2016-07-28T11:19:29.102Z,68.13
2016-07-28T11:20:10.932Z,68.04
2016-07-28T11:21:13.194Z,67.96
2016-07-28T11:22:26.605Z,68.12
2016-07-28T11:23:11.867Z,68.39
2016-07-28T11:24:35.256Z,67.04
2016-07-28T11:25:26.242Z,66.90
2016-07-28T11:26:14.110Z,66.86
2016-07-28T11:27:32.005Z,66.77
2016-07-28T11:29:16.965Z,66.74
2016-07-28T11:30:13.888Z,66.75
2016-07-28T11:31:16.587Z,66.75
2016-07-28T11:32:15.105Z,67.86
2016-07-28T11:33:12.153Z,68.11
2016-07-28T11:34:47.749Z,67.16
2016-07-28T11:35:39.838Z,67.06
2016-07-28T11:36:15.864Z,67.94
2016-07-28T11:37:12.858Z,68.26
2016-07-28T11:38:26.577Z,68.24
2016-07-28T11:39:16.310Z,68.32
2016-07-28T11:40:14.027Z,68.31
2016-07-28T11:41:15.259Z,68.38
2016-07-28T11:42:29.085Z,68.37
2016-07-28T11:43:12.072Z,68.43
2016-07-28T11:44:12.403Z,68.45
2016-07-28T11:45:24.297Z,68.47
2016-07-28T11:46:14.194Z,68.47
2016-07-28T11:47:13.498Z,68.53
2016-07-28T11:48:14.012Z,68.55
2016-07-28T11:49:12.231Z,68.54
2016-07-28T11:50:16.826Z,68.60
2016-07-28T11:51:14.527Z,68.58
2016-07-28T11:52:13.667Z,68.64
2016-07-28T11:53:10.992Z,68.67
2016-07-28T11:54:16.757Z,67.54
2016-07-28T11:55:18.721Z,67.43
2016-07-28T11:56:16.209Z,67.28
2016-07-28T11:57:31.278Z,67.21
2016-07-28T11:58:11.657Z,67.38
2016-07-28T11:59:26.799Z,67.67
2016-07-28T12:00:16.792Z,67.94
2016-07-28T12:01:28.076Z,67.99
2016-07-28T12:02:37.914Z,65.44
2016-07-28T12:03:37.875Z,64.94
2016-07-28T12:04:15.218Z,65.93
2016-07-28T12:05:13.544Z,67.20
2016-07-28T12:06:37.414Z,67.21
2016-07-28T12:07:20.286Z,66.77
2016-07-28T12:08:26.225Z,66.46
2016-07-28T12:09:23.906Z,65.20
2016-07-28T12:10:21.901Z,64.43
2016-07-28T12:11:39.529Z,64.14
2016-07-28T12:12:28.096Z,63.72
2016-07-28T12:13:26.755Z,63.71
2016-07-28T12:14:14.838Z,65.08
2016-07-28T12:15:38.276Z,65.01
2016-07-28T12:16:38.339Z,65.06
2016-07-28T12:17:30.647Z,65.19
2016-07-28T12:18:22.638Z,65.74
2016-07-28T12:19:14.191Z,66.02
2016-07-28T12:20:21.257Z,66.29
2016-07-28T12:21:18.233Z,66.34
2016-07-28T12:22:13.573Z,65.47
2016-07-28T12:23:28.086Z,66.30
2016-07-28T12:24:14.735Z,66.38
2016-07-28T12:25:12.178Z,66.36
2016-07-28T12:26:26.371Z,65.31
2016-07-28T12:27:35.065Z,65.17
2016-07-28T12:28:14.979Z,65.53
2016-07-28T12:29:39.154Z,64.62
2016-07-28T12:30:39.028Z,65.08
2016-07-28T12:31:26.182Z,65.04
2016-07-28T12:32:41.218Z,64.92
2016-07-28T12:33:13.342Z,65.07
2016-07-28T12:34:26.648Z,65.15
2016-07-28T12:35:43.568Z,65.14
2016-07-28T12:36:32.114Z,65.48
2016-07-28T12:37:36.699Z,65.44
2016-07-28T12:38:40.016Z,65.31
2016-07-28T12:39:40.288Z,65.39
2016-07-28T12:40:14.160Z,65.39
2016-07-28T12:41:15.685Z,65.42
2016-07-28T12:42:27.436Z,65.40
2016-07-28T12:43:45.050Z,65.49
2016-07-28T12:44:41.216Z,65.62
2016-07-28T12:45:38.784Z,65.56
2016-07-28T12:46:14.568Z,65.61
2016-07-28T12:47:48.509Z,65.64
2016-07-28T12:48:29.935Z,65.63
2016-07-28T12:49:38.817Z,65.78
2016-07-28T12:50:19.479Z,65.79
2016-07-28T12:51:25.303Z,65.88
2016-07-28T12:52:40.819Z,65.95
2016-07-28T12:53:27.986Z,66.06
2016-07-28T12:54:44.125Z,66.12
2016-07-28T12:55:19.295Z,66.12
2016-07-28T12:56:46.334Z,66.15
2016-07-28T12:57:29.534Z,66.18
2016-07-28T12:58:27.705Z,66.19
2016-07-28T12:59:33.096Z,66.18
2016-07-28T13:00:20.584Z,66.27
2016-07-28T13:01:33.692Z,66.27
2016-07-28T13:02:39.603Z,66.31